Terminal Aerodrome Forecast
Issued by NWS Cleveland, OH

Home | Current Version | Previous Version | Graphics & Text | Print | Product List | Glossary Off
Versions: 1 2 3 4 5 6 7 8 9 10 11 12 13 14 15 16 17 18 19 20 21 22 23 24

000
FTUS41 KCLE 011900 AAA
TAFCAK
TAF AMD
KCAK 011910Z 0119/0218 24003KT P6SM VCTS SCT040CB
      TEMPO 0119/0123 2SM TSRA BR SCT015 OVC035CB
     FM020000 14004KT P6SM BKN040
     FM020600 15003KT P6SM VCSH OVC040=

USA.gov is the U.S. government's official web portal to all federal, state and local government web resources and services.